createdAt,value
2019-05-01T00:00:15.971Z,30.72
2019-05-01T00:01:37.376Z,18.77
2019-05-01T00:03:07.736Z,55.70
2019-05-01T00:04:31.058Z,21.42
2019-05-01T00:05:38.334Z,16.27
2019-05-01T00:06:46.307Z,17.05
2019-05-01T00:07:51.903Z,20.30
2019-05-01T00:08:56.816Z,16.67
2019-05-01T00:10:01.424Z,14.85
2019-05-01T00:11:06.344Z,15.23
2019-05-01T00:12:11.389Z,16.20
2019-05-01T00:13:16.601Z,15.15
2019-05-01T00:14:21.288Z,15.28
2019-05-01T00:15:28.975Z,16.10
2019-05-01T00:16:33.820Z,15.35
2019-05-01T00:17:47.398Z,15.10
2019-05-01T00:18:52.065Z,14.85
2019-05-01T00:19:56.693Z,14.83
2019-05-01T00:21:01.584Z,15.38
2019-05-01T00:22:06.269Z,15.00
2019-05-01T00:23:10.868Z,15.20
2019-05-01T00:24:15.446Z,14.60
2019-05-01T00:25:21.195Z,15.28
2019-05-01T00:26:28.519Z,15.60
2019-05-01T00:27:33.201Z,15.18
2019-05-01T00:28:37.995Z,19.75
2019-05-01T00:29:42.699Z,16.23
2019-05-01T00:30:47.416Z,14.98
2019-05-01T00:31:52.000Z,14.15
2019-05-01T00:32:56.729Z,14.70
2019-05-01T00:34:01.335Z,14.98
2019-05-01T00:35:06.370Z,14.55
2019-05-01T00:36:11.004Z,14.45
2019-05-01T00:37:15.721Z,14.65
2019-05-01T00:38:20.681Z,14.58
2019-05-01T00:39:25.369Z,14.45
2019-05-01T00:40:29.996Z,18.23
2019-05-01T00:41:34.589Z,14.75
2019-05-01T00:42:39.205Z,14.28
2019-05-01T00:43:43.784Z,14.55
2019-05-01T00:44:48.386Z,14.60
2019-05-01T00:45:52.961Z,14.73
2019-05-01T00:46:57.581Z,14.90
2019-05-01T00:48:02.860Z,14.15
2019-05-01T00:49:07.780Z,14.05
2019-05-01T00:50:12.634Z,16.52
2019-05-01T00:51:17.265Z,13.40
2019-05-01T00:52:21.878Z,14.00
2019-05-01T00:53:26.525Z,14.68
2019-05-01T00:54:33.576Z,14.35
2019-05-01T00:56:00.754Z,14.10
2019-05-01T00:57:15.767Z,12.80
2019-05-01T00:58:34.281Z,13.70
2019-05-01T00:59:58.116Z,13.28
2019-05-01T01:01:26.742Z,14.53
2019-05-01T01:02:42.993Z,13.60
2019-05-01T01:03:49.114Z,15.08
2019-05-01T01:04:53.866Z,13.53
2019-05-01T01:05:58.564Z,11.78
2019-05-01T01:07:03.148Z,12.65
2019-05-01T01:08:07.841Z,14.05
2019-05-01T01:09:14.263Z,12.90
2019-05-01T01:10:18.885Z,12.70
2019-05-01T01:11:23.500Z,12.47
2019-05-01T01:12:28.134Z,12.50
2019-05-01T01:13:32.780Z,12.35
2019-05-01T01:14:37.436Z,13.30
2019-05-01T01:15:41.994Z,13.15
2019-05-01T01:16:46.582Z,12.50
2019-05-01T01:17:51.207Z,11.22
2019-05-01T01:18:55.843Z,11.80
2019-05-01T01:20:00.431Z,11.83
2019-05-01T01:21:05.074Z,13.08
2019-05-01T01:22:09.735Z,12.30
2019-05-01T01:23:14.314Z,11.85
2019-05-01T01:24:18.957Z,12.10
2019-05-01T01:25:28.760Z,13.18
2019-05-01T01:26:33.480Z,12.00
2019-05-01T01:27:38.229Z,12.90
2019-05-01T01:28:42.911Z,12.78
2019-05-01T01:29:47.575Z,12.10
2019-05-01T01:30:56.690Z,12.00
2019-05-01T01:31:58.527Z,12.33
2019-05-01T01:33:03.114Z,12.15
2019-05-01T01:34:07.718Z,12.15
2019-05-01T01:35:12.474Z,12.03
2019-05-01T01:36:17.138Z,12.53
2019-05-01T01:37:21.719Z,11.97
2019-05-01T01:38:26.422Z,11.95
2019-05-01T01:39:31.086Z,12.07
2019-05-01T01:40:36.367Z,12.05
2019-05-01T01:41:41.188Z,13.00
2019-05-01T01:42:48.507Z,12.53
2019-05-01T01:44:03.251Z,11.20
2019-05-01T01:45:23.103Z,11.73
2019-05-01T01:46:29.372Z,11.65
2019-05-01T01:47:36.987Z,12.53
2019-05-01T01:48:41.756Z,13.55
2019-05-01T01:49:46.511Z,12.50
2019-05-01T01:50:51.281Z,11.95
2019-05-01T01:51:56.284Z,13.00
2019-05-01T01:53:01.063Z,11.97
2019-05-01T01:54:05.910Z,12.65
2019-05-01T01:55:10.647Z,12.85
2019-05-01T01:56:15.850Z,12.43
2019-05-01T01:57:20.825Z,12.73
2019-05-01T01:58:26.174Z,12.95
2019-05-01T01:59:31.101Z,14.05
2019-05-01T02:01:08.951Z,13.03
2019-05-01T02:02:22.416Z,14.10
2019-05-01T02:03:29.087Z,14.65
2019-05-01T02:04:51.770Z,13.62
2019-05-01T02:05:56.426Z,16.32
2019-05-01T02:07:01.168Z,14.68
2019-05-01T02:08:08.749Z,15.20
2019-05-01T02:09:12.564Z,17.87
2019-05-01T02:10:17.825Z,15.70
2019-05-01T02:11:22.506Z,16.70
2019-05-01T02:12:27.471Z,16.50
2019-05-01T02:13:32.328Z,18.52
2019-05-01T02:14:36.950Z,15.90
2019-05-01T02:15:41.592Z,16.48
2019-05-01T02:16:46.236Z,18.30
2019-05-01T02:17:50.923Z,16.50
2019-05-01T02:18:55.710Z,18.23
2019-05-01T02:20:00.319Z,17.10
2019-05-01T02:21:05.137Z,17.80
2019-05-01T02:22:09.740Z,18.10
2019-05-01T02:23:15.380Z,17.90
2019-05-01T02:24:20.037Z,17.85
2019-05-01T02:25:25.142Z,17.30
2019-05-01T02:26:33.335Z,18.52
2019-05-01T02:27:57.740Z,19.25
2019-05-01T02:29:13.358Z,17.80
2019-05-01T02:30:19.373Z,18.02
2019-05-01T02:31:48.969Z,18.40
2019-05-01T02:32:55.192Z,18.80
2019-05-01T02:34:01.778Z,18.65
2019-05-01T02:35:06.698Z,18.25
2019-05-01T02:36:11.826Z,19.07
2019-05-01T02:37:20.022Z,18.90
2019-05-01T02:38:24.746Z,20.17
2019-05-01T02:39:32.421Z,20.45
2019-05-01T02:40:51.260Z,19.00
2019-05-01T02:43:16.276Z,19.07
2019-05-01T02:44:32.094Z,20.52
2019-05-01T02:45:37.732Z,21.65
2019-05-01T02:46:45.093Z,20.32
2019-05-01T02:47:50.100Z,20.48
2019-05-01T02:49:17.646Z,20.97
2019-05-01T02:50:24.879Z,20.20
2019-05-01T02:51:30.019Z,20.97
2019-05-01T02:52:37.239Z,20.97
2019-05-01T02:53:45.168Z,20.72
2019-05-01T02:54:50.728Z,21.17
2019-05-01T02:56:34.724Z,20.75
2019-05-01T02:57:41.049Z,21.70
2019-05-01T02:58:47.424Z,22.13
2019-05-01T02:59:53.760Z,20.97
2019-05-01T03:00:58.446Z,21.02
2019-05-01T03:02:03.813Z,20.75
2019-05-01T03:03:09.610Z,22.15
2019-05-01T03:04:15.463Z,21.15
2019-05-01T03:05:20.281Z,20.97
2019-05-01T03:06:26.837Z,20.68
2019-05-01T03:07:34.113Z,21.68
2019-05-01T03:08:39.475Z,21.30
2019-05-01T03:09:44.135Z,22.13
2019-05-01T03:10:48.811Z,23.38
2019-05-01T03:11:56.505Z,21.60
2019-05-01T03:13:02.123Z,22.75
2019-05-01T03:14:10.998Z,22.85
2019-05-01T03:15:17.804Z,22.55
2019-05-01T03:16:23.613Z,21.60
2019-05-01T03:17:40.441Z,22.52
2019-05-01T03:18:48.863Z,20.92
2019-05-01T03:19:59.280Z,23.32
2019-05-01T03:21:09.687Z,22.80
2019-05-01T03:22:40.033Z,21.87
2019-05-01T03:23:51.827Z,22.32
2019-05-01T03:24:56.699Z,23.07
2019-05-01T03:26:01.880Z,23.05
2019-05-01T03:27:06.626Z,23.40
2019-05-01T03:28:11.588Z,23.67
2019-05-01T03:29:16.627Z,22.75
2019-05-01T03:30:21.343Z,25.12
2019-05-01T03:31:26.241Z,23.20
2019-05-01T03:32:32.365Z,23.73
2019-05-01T03:33:37.454Z,24.60
2019-05-01T03:34:42.262Z,22.70
2019-05-01T03:35:47.034Z,24.32
2019-05-01T03:36:51.928Z,24.72
2019-05-01T03:37:56.757Z,24.52
2019-05-01T03:39:02.446Z,23.87
2019-05-01T03:40:12.090Z,24.18
2019-05-01T03:41:14.986Z,24.80
2019-05-01T03:42:19.734Z,26.02
2019-05-01T03:43:24.883Z,24.85
2019-05-01T03:44:32.247Z,25.23
2019-05-01T03:45:37.567Z,25.27
2019-05-01T03:46:42.791Z,24.45
2019-05-01T03:47:47.521Z,25.65
2019-05-01T03:48:52.515Z,26.48
2019-05-01T03:49:57.256Z,25.43
2019-05-01T03:51:02.585Z,25.60
2019-05-01T03:52:07.286Z,26.45
2019-05-01T03:53:12.293Z,25.92
2019-05-01T03:54:17.513Z,26.40
2019-05-01T03:55:22.594Z,27.07
2019-05-01T03:56:28.440Z,26.23
2019-05-01T03:57:33.313Z,27.40
2019-05-01T03:58:38.756Z,25.72
2019-05-01T03:59:43.461Z,27.10
2019-05-01T04:00:55.971Z,26.68
2019-05-01T04:02:08.935Z,26.62
2019-05-01T04:03:24.579Z,27.90
2019-05-01T04:04:30.450Z,28.07
2019-05-01T04:05:35.092Z,26.82
2019-05-01T04:06:39.827Z,26.77
2019-05-01T04:07:44.469Z,26.95
2019-05-01T04:08:49.909Z,27.82
2019-05-01T04:09:54.579Z,28.42
2019-05-01T04:10:59.200Z,28.15
2019-05-01T04:12:04.160Z,27.62
2019-05-01T04:13:10.020Z,27.55
2019-05-01T04:14:14.719Z,29.23
2019-05-01T04:15:19.423Z,28.02
2019-05-01T04:16:24.153Z,28.30
2019-05-01T04:17:39.150Z,28.52
2019-05-01T04:18:43.829Z,28.57
2019-05-01T04:19:48.752Z,27.27
2019-05-01T04:20:54.051Z,28.80
2019-05-01T04:22:08.786Z,28.80
2019-05-01T04:23:13.953Z,28.80
2019-05-01T04:24:19.335Z,29.77
2019-05-01T04:25:24.546Z,31.57
2019-05-01T04:26:29.412Z,31.40
2019-05-01T04:27:36.900Z,48.98
2019-05-01T04:29:13.283Z,35.48
2019-05-01T04:30:30.274Z,34.80
2019-05-01T04:31:38.773Z,60.40
2019-05-01T04:32:52.641Z,49.55
2019-05-01T04:33:51.843Z,33.75
2019-05-01T04:35:24.771Z,38.70
2019-05-01T04:36:34.805Z,34.20
2019-05-01T04:37:39.659Z,43.15
2019-05-01T04:38:44.570Z,50.43
2019-05-01T04:39:49.309Z,32.13
2019-05-01T04:40:54.083Z,30.90
2019-05-01T04:41:58.769Z,32.45
2019-05-01T04:43:03.570Z,31.35
2019-05-01T04:44:08.917Z,31.73
2019-05-01T04:45:14.912Z,31.48
2019-05-01T04:46:19.825Z,32.05
2019-05-01T04:47:25.153Z,30.23
2019-05-01T04:48:30.010Z,31.30
2019-05-01T04:49:34.695Z,31.17
2019-05-01T04:50:39.860Z,32.45
2019-05-01T04:51:45.348Z,30.37
2019-05-01T04:52:50.455Z,31.30
2019-05-01T04:53:55.823Z,31.70
2019-05-01T04:55:00.913Z,31.10
2019-05-01T04:56:05.672Z,34.30
2019-05-01T04:57:10.440Z,30.55
2019-05-01T04:58:15.006Z,31.02
2019-05-01T04:59:20.141Z,31.70
2019-05-01T05:00:26.973Z,32.35
2019-05-01T05:01:52.073Z,31.95
2019-05-01T05:03:05.102Z,31.90
2019-05-01T05:04:08.128Z,31.80
2019-05-01T05:05:13.100Z,33.15
2019-05-01T05:06:18.124Z,31.52
2019-05-01T05:07:22.863Z,32.10
2019-05-01T05:08:27.987Z,33.10
2019-05-01T05:09:48.032Z,31.20
2019-05-01T05:10:54.093Z,32.08
2019-05-01T05:12:00.401Z,32.80
2019-05-01T05:13:25.157Z,32.95
2019-05-01T05:14:31.649Z,33.95
2019-05-01T05:15:51.329Z,33.05
2019-05-01T05:17:03.812Z,32.00
2019-05-01T05:18:09.172Z,33.05
2019-05-01T05:19:14.534Z,32.35
2019-05-01T05:20:19.776Z,31.87
2019-05-01T05:21:24.500Z,32.98
2019-05-01T05:22:30.327Z,33.73
2019-05-01T05:23:35.075Z,32.48
2019-05-01T05:24:39.772Z,31.45
2019-05-01T05:25:44.714Z,34.80
2019-05-01T05:26:50.019Z,32.85
2019-05-01T05:27:55.504Z,33.18
2019-05-01T05:29:01.930Z,33.28
2019-05-01T05:30:06.622Z,31.65
2019-05-01T05:31:12.310Z,32.88
2019-05-01T05:32:19.559Z,33.48
2019-05-01T05:33:26.991Z,33.13
2019-05-01T05:34:33.436Z,32.33
2019-05-01T05:35:41.072Z,31.12
2019-05-01T05:36:46.116Z,33.88
2019-05-01T05:38:26.609Z,31.42
2019-05-01T05:39:38.355Z,34.25
2019-05-01T05:40:43.916Z,33.13
2019-05-01T05:41:50.592Z,33.67
2019-05-01T05:42:55.651Z,32.45
2019-05-01T05:44:00.703Z,34.45
2019-05-01T05:45:05.667Z,32.25
2019-05-01T05:46:10.320Z,32.85
2019-05-01T05:47:15.090Z,33.42
2019-05-01T05:48:19.927Z,33.33
2019-05-01T05:49:24.785Z,32.80
2019-05-01T05:50:34.146Z,32.42
2019-05-01T05:51:49.719Z,31.40
2019-05-01T05:53:00.517Z,31.95
2019-05-01T05:54:11.655Z,33.02
2019-05-01T05:55:21.771Z,32.48
2019-05-01T05:56:32.664Z,32.93
2019-05-01T05:57:55.690Z,34.38
2019-05-01T05:59:08.420Z,31.27
2019-05-01T06:00:23.523Z,33.50
2019-05-01T06:01:54.810Z,30.95
2019-05-01T06:03:10.173Z,32.25
2019-05-01T06:04:38.155Z,31.93
2019-05-01T06:05:53.159Z,32.30
2019-05-01T06:07:15.178Z,32.23
2019-05-01T06:08:22.417Z,30.95
2019-05-01T06:09:37.510Z,32.48
2019-05-01T06:11:09.609Z,31.48
2019-05-01T06:12:22.229Z,32.65
2019-05-01T06:13:52.660Z,32.10
2019-05-01T06:15:25.218Z,32.70
2019-05-01T06:16:42.511Z,32.73
2019-05-01T06:17:53.914Z,33.42
2019-05-01T06:19:17.987Z,32.33
2019-05-01T06:20:57.149Z,31.15
2019-05-01T06:22:25.341Z,33.40
2019-05-01T06:23:52.697Z,33.65
2019-05-01T06:25:02.605Z,32.93
2019-05-01T06:26:25.276Z,32.13
2019-05-01T06:27:31.430Z,32.30
2019-05-01T06:28:36.131Z,32.20
2019-05-01T06:29:40.848Z,33.10
2019-05-01T06:30:47.193Z,32.78
2019-05-01T06:31:53.954Z,34.60
2019-05-01T06:32:58.773Z,33.65
2019-05-01T06:34:03.584Z,33.65
2019-05-01T06:35:08.342Z,32.80
2019-05-01T06:36:13.344Z,33.42
2019-05-01T06:37:20.855Z,35.33
2019-05-01T06:38:25.466Z,34.67
2019-05-01T06:39:30.147Z,35.55
2019-05-01T06:40:39.967Z,33.80
2019-05-01T06:41:45.055Z,36.77
2019-05-01T06:42:50.153Z,36.60
2019-05-01T06:44:02.388Z,36.50
2019-05-01T06:45:13.029Z,38.80
2019-05-01T06:46:29.716Z,37.33
2019-05-01T06:47:43.028Z,36.68
2019-05-01T06:48:53.361Z,38.73
2019-05-01T06:50:41.583Z,37.45
2019-05-01T06:51:47.991Z,36.17
2019-05-01T06:52:53.608Z,39.33
2019-05-01T06:53:58.343Z,40.83
2019-05-01T06:55:03.238Z,39.20
2019-05-01T06:56:07.838Z,38.23
2019-05-01T06:57:12.691Z,36.35
2019-05-01T06:58:20.450Z,38.90
2019-05-01T06:59:31.619Z,37.25
2019-05-01T07:00:33.195Z,38.42
2019-05-01T07:01:38.383Z,39.80
2019-05-01T07:02:43.668Z,39.50
2019-05-01T07:04:02.927Z,37.45
2019-05-01T07:04:55.650Z,39.95
2019-05-01T07:06:13.276Z,41.13
2019-05-01T07:07:18.506Z,39.95
2019-05-01T07:08:23.959Z,42.17
2019-05-01T07:09:27.751Z,39.08
2019-05-01T07:10:31.576Z,38.73
2019-05-01T07:11:34.621Z,39.60
2019-05-01T07:12:39.585Z,38.60
2019-05-01T07:13:51.574Z,38.90
2019-05-01T07:15:01.176Z,37.48
2019-05-01T07:16:06.121Z,38.28
2019-05-01T07:17:13.692Z,38.17
2019-05-01T07:18:18.956Z,37.38
2019-05-01T07:19:43.487Z,40.35
2019-05-01T07:20:51.379Z,39.48
2019-05-01T07:21:57.140Z,40.15
2019-05-01T07:23:02.025Z,39.53
2019-05-01T07:24:07.114Z,39.70
2019-05-01T07:25:12.018Z,39.40
2019-05-01T07:26:16.758Z,41.40
2019-05-01T07:27:23.876Z,41.10
2019-05-01T07:28:34.352Z,40.30
2019-05-01T07:29:39.851Z,39.65
2019-05-01T07:30:49.959Z,41.08
2019-05-01T07:31:54.290Z,40.10
2019-05-01T07:32:59.528Z,58.10
2019-05-01T07:34:15.997Z,74.25
2019-05-01T07:35:11.117Z,41.88
2019-05-01T07:36:16.567Z,42.90
2019-05-01T07:37:25.908Z,47.45
2019-05-01T07:38:28.256Z,41.83
2019-05-01T07:39:33.611Z,44.23
2019-05-01T07:40:38.590Z,41.65
2019-05-01T07:41:43.443Z,43.87
2019-05-01T07:42:50.858Z,44.88
2019-05-01T07:44:14.870Z,47.95
2019-05-01T07:45:43.565Z,46.42
2019-05-01T07:46:57.393Z,47.88
2019-05-01T07:48:05.626Z,57.93
2019-05-01T07:49:13.047Z,58.90
2019-05-01T07:50:17.765Z,50.98
2019-05-01T07:51:22.922Z,46.90
2019-05-01T07:52:29.056Z,47.00
2019-05-01T07:53:34.963Z,41.95
2019-05-01T07:54:42.430Z,42.13
2019-05-01T07:55:48.581Z,43.55
2019-05-01T07:56:53.683Z,41.60
2019-05-01T07:57:58.713Z,43.85
2019-05-01T07:59:03.729Z,43.20
2019-05-01T08:00:16.097Z,40.90
2019-05-01T08:01:42.744Z,43.08
2019-05-01T08:02:47.764Z,42.30
2019-05-01T08:03:52.697Z,41.90
2019-05-01T08:04:57.479Z,40.40
2019-05-01T08:06:02.375Z,54.88
2019-05-01T08:07:07.058Z,45.58
2019-05-01T08:08:12.290Z,48.85
2019-05-01T08:09:17.393Z,42.65
2019-05-01T08:10:25.898Z,65.15
2019-05-01T08:11:28.778Z,46.02
2019-05-01T08:12:33.713Z,51.70
2019-05-01T08:13:38.927Z,41.90
2019-05-01T08:14:47.818Z,39.58
2019-05-01T08:15:52.602Z,38.90
2019-05-01T08:16:57.435Z,39.20
2019-05-01T08:18:14.652Z,40.03
2019-05-01T08:19:24.805Z,38.90
2019-05-01T08:20:35.823Z,40.92
2019-05-01T08:22:05.824Z,38.48
2019-05-01T08:23:12.101Z,41.45
2019-05-01T08:24:17.959Z,39.95
2019-05-01T08:25:23.950Z,39.58
2019-05-01T08:26:28.667Z,39.10
2019-05-01T08:28:01.443Z,39.92
2019-05-01T08:29:42.141Z,39.33
2019-05-01T08:31:05.785Z,38.65
2019-05-01T08:32:39.158Z,40.17
2019-05-01T08:33:53.011Z,39.13
2019-05-01T08:35:04.683Z,38.73
2019-05-01T08:36:11.585Z,39.13
2019-05-01T08:37:17.777Z,39.75
2019-05-01T08:38:23.557Z,39.98
2019-05-01T08:39:29.280Z,38.85
2019-05-01T08:40:37.073Z,38.53
2019-05-01T08:41:40.563Z,38.60
2019-05-01T08:42:45.725Z,38.98
2019-05-01T08:43:53.903Z,38.23
2019-05-01T08:45:15.576Z,40.48
2019-05-01T08:46:40.851Z,37.45
2019-05-01T08:47:48.440Z,38.85
2019-05-01T08:48:57.711Z,39.92
2019-05-01T08:50:14.306Z,39.53
2019-05-01T08:51:19.065Z,37.98
2019-05-01T08:52:23.919Z,38.40
2019-05-01T08:53:28.755Z,40.30
2019-05-01T08:54:34.747Z,37.67
2019-05-01T08:55:45.225Z,39.53
2019-05-01T08:56:47.111Z,39.10
2019-05-01T08:57:51.822Z,38.85
2019-05-01T08:58:57.081Z,38.33
2019-05-01T09:00:01.963Z,36.35
2019-05-01T09:01:10.850Z,36.88
2019-05-01T09:02:13.371Z,37.05
2019-05-01T09:03:20.325Z,36.05
2019-05-01T09:04:29.819Z,37.25
2019-05-01T09:05:33.943Z,35.98
2019-05-01T09:06:39.423Z,36.50
2019-05-01T09:07:44.245Z,37.73
2019-05-01T09:08:49.044Z,36.80
2019-05-01T09:09:53.898Z,35.45
2019-05-01T09:11:00.261Z,37.93
2019-05-01T09:12:06.801Z,35.58
2019-05-01T09:13:12.031Z,35.30
2019-05-01T09:14:16.700Z,35.45
2019-05-01T09:15:22.649Z,36.10
2019-05-01T09:16:28.267Z,36.63
2019-05-01T09:17:33.635Z,36.33
2019-05-01T09:18:38.332Z,36.80
2019-05-01T09:19:43.355Z,36.38
2019-05-01T09:20:49.810Z,37.48
2019-05-01T09:21:54.555Z,35.80
2019-05-01T09:22:59.478Z,36.77
2019-05-01T09:24:04.397Z,36.83
2019-05-01T09:25:10.347Z,37.13
2019-05-01T09:26:32.873Z,36.63
2019-05-01T09:28:07.496Z,37.60
2019-05-01T09:29:17.831Z,41.75
2019-05-01T09:30:35.199Z,37.83
2019-05-01T09:31:40.661Z,41.25
2019-05-01T09:32:51.619Z,41.05
2019-05-01T09:33:51.771Z,41.85
2019-05-01T09:34:58.300Z,39.53
2019-05-01T09:36:02.820Z,36.95
2019-05-01T09:37:07.504Z,36.00
2019-05-01T09:38:12.252Z,35.60
2019-05-01T09:39:17.244Z,36.53
2019-05-01T09:40:21.982Z,36.98
2019-05-01T09:41:37.638Z,35.35
2019-05-01T09:42:33.269Z,36.00
2019-05-01T09:43:38.122Z,35.03
2019-05-01T09:44:44.001Z,32.10
2019-05-01T09:45:49.496Z,30.52
2019-05-01T09:46:54.345Z,30.70
2019-05-01T09:48:00.711Z,28.75
2019-05-01T09:49:06.305Z,31.55
2019-05-01T09:50:11.370Z,29.57
2019-05-01T09:51:36.597Z,30.95
2019-05-01T09:52:49.778Z,30.60
2019-05-01T09:54:25.835Z,29.67
2019-05-01T09:55:37.964Z,32.03
2019-05-01T09:56:42.649Z,31.80
2019-05-01T09:57:47.410Z,31.80
2019-05-01T09:58:52.094Z,32.55
2019-05-01T09:59:56.667Z,33.02
2019-05-01T10:01:01.344Z,31.65
2019-05-01T10:02:07.834Z,32.25
2019-05-01T10:03:13.040Z,33.25
2019-05-01T10:04:18.960Z,31.97
2019-05-01T10:05:29.114Z,34.10
2019-05-01T10:06:30.833Z,35.13
2019-05-01T10:07:35.552Z,37.00
2019-05-01T10:08:41.854Z,63.52
2019-05-01T10:09:47.248Z,42.43
2019-05-01T10:10:53.069Z,40.83
2019-05-01T10:11:57.676Z,40.48
2019-05-01T10:13:02.313Z,33.13
2019-05-01T10:14:07.220Z,35.20
2019-05-01T10:15:11.996Z,41.15
2019-05-01T10:16:16.656Z,34.75
2019-05-01T10:17:21.370Z,32.83
2019-05-01T10:18:26.206Z,33.65
2019-05-01T10:19:30.897Z,33.95
2019-05-01T10:20:35.567Z,33.18
2019-05-01T10:21:40.315Z,33.55
2019-05-01T10:22:45.036Z,32.90
2019-05-01T10:23:51.760Z,32.78
2019-05-01T10:24:56.143Z,31.00
2019-05-01T10:26:02.551Z,32.78
2019-05-01T10:27:09.619Z,32.63
2019-05-01T10:28:20.236Z,33.08
2019-05-01T10:29:45.334Z,31.05
2019-05-01T10:31:11.997Z,31.20
2019-05-01T10:32:42.550Z,29.55
2019-05-01T10:33:48.402Z,31.15
2019-05-01T10:35:00.153Z,30.00
2019-05-01T10:36:18.259Z,29.20
2019-05-01T10:37:17.185Z,30.70
2019-05-01T10:38:22.081Z,30.75
2019-05-01T10:39:26.914Z,30.95
2019-05-01T10:40:32.334Z,28.95
2019-05-01T10:41:41.080Z,30.02
2019-05-01T10:42:44.815Z,28.23
2019-05-01T10:43:49.669Z,28.83
2019-05-01T10:44:54.636Z,31.37
2019-05-01T10:45:59.669Z,29.48
2019-05-01T10:47:04.498Z,29.37
2019-05-01T10:48:09.460Z,28.15
2019-05-01T10:49:14.251Z,29.27
2019-05-01T10:50:18.928Z,28.75
2019-05-01T10:51:23.564Z,29.72
2019-05-01T10:52:28.407Z,29.27
2019-05-01T10:53:33.496Z,27.80
2019-05-01T10:54:39.189Z,30.02
2019-05-01T10:55:44.788Z,29.57
2019-05-01T10:56:49.749Z,35.75
2019-05-01T10:57:54.661Z,46.20
2019-05-01T10:58:59.289Z,28.98
2019-05-01T11:00:04.928Z,29.07
2019-05-01T11:01:16.920Z,28.25
2019-05-01T11:02:21.788Z,28.62
2019-05-01T11:03:26.598Z,28.10
2019-05-01T11:04:31.373Z,27.22
2019-05-01T11:05:36.167Z,26.37
2019-05-01T11:06:41.321Z,26.10
2019-05-01T11:07:46.254Z,26.60
2019-05-01T11:08:50.864Z,26.48
2019-05-01T11:09:55.714Z,25.75
2019-05-01T11:11:00.566Z,26.50
2019-05-01T11:12:05.498Z,25.85
2019-05-01T11:13:10.350Z,25.75
2019-05-01T11:14:15.272Z,24.57
2019-05-01T11:15:20.299Z,27.05
2019-05-01T11:16:25.170Z,24.63
2019-05-01T11:17:29.971Z,25.37
2019-05-01T11:18:34.817Z,24.90
2019-05-01T11:19:39.463Z,24.50
2019-05-01T11:20:44.481Z,24.20
2019-05-01T11:21:49.410Z,23.20
2019-05-01T11:22:54.153Z,25.75
2019-05-01T11:23:58.923Z,25.27
2019-05-01T11:25:13.484Z,24.50
2019-05-01T11:26:18.413Z,26.33
2019-05-01T11:27:23.285Z,23.70
2019-05-01T11:28:28.401Z,23.95
2019-05-01T11:29:36.320Z,23.30
2019-05-01T11:30:41.366Z,22.22
2019-05-01T11:31:58.907Z,22.30
2019-05-01T11:33:24.001Z,22.27
2019-05-01T11:34:44.591Z,21.95
2019-05-01T11:36:23.819Z,23.47
2019-05-01T11:37:47.856Z,23.50
2019-05-01T11:39:04.307Z,21.80
2019-05-01T11:40:13.644Z,23.38
2019-05-01T11:41:26.170Z,24.72
2019-05-01T11:42:31.114Z,23.85
2019-05-01T11:43:35.958Z,22.80
2019-05-01T11:44:40.966Z,24.15
2019-05-01T11:45:46.103Z,24.35
2019-05-01T11:46:50.927Z,26.20
2019-05-01T11:47:55.988Z,24.40
2019-05-01T11:49:01.017Z,25.37
2019-05-01T11:50:06.371Z,24.67
2019-05-01T11:52:35.422Z,23.42
2019-05-01T11:53:40.251Z,22.10
2019-05-01T11:54:45.268Z,22.48
2019-05-01T11:55:50.231Z,22.30
2019-05-01T11:56:55.044Z,22.80
2019-05-01T11:57:59.958Z,22.62
2019-05-01T11:59:05.093Z,22.20
2019-05-01T12:00:10.766Z,21.10
2019-05-01T12:01:17.224Z,21.62
2019-05-01T12:02:22.264Z,21.17
2019-05-01T12:03:28.340Z,21.10
2019-05-01T12:04:33.168Z,21.82
2019-05-01T12:05:38.047Z,20.57
2019-05-01T12:06:43.075Z,20.05
2019-05-01T12:07:47.881Z,20.70
2019-05-01T12:08:52.716Z,20.05
2019-05-01T12:09:57.687Z,19.20
2019-05-01T12:11:04.965Z,20.80
2019-05-01T12:12:12.495Z,19.48
2019-05-01T12:13:17.104Z,20.30
2019-05-01T12:14:21.776Z,18.15
2019-05-01T12:15:26.647Z,17.57
2019-05-01T12:16:49.537Z,16.55
2019-05-01T12:17:54.408Z,15.03
2019-05-01T12:18:59.229Z,16.25
2019-05-01T12:20:04.374Z,16.30
2019-05-01T12:21:09.268Z,16.57
2019-05-01T12:22:14.045Z,17.37
2019-05-01T12:23:18.859Z,16.75
2019-05-01T12:24:23.630Z,17.42
2019-05-01T12:25:29.483Z,16.15
2019-05-01T12:26:34.414Z,17.23
2019-05-01T12:27:39.400Z,16.77
2019-05-01T12:28:44.158Z,17.65
2019-05-01T12:29:49.188Z,16.85
2019-05-01T12:30:54.066Z,17.50
2019-05-01T12:31:58.940Z,17.52
2019-05-01T12:33:03.668Z,18.12
2019-05-01T12:34:08.541Z,18.35
2019-05-01T12:35:13.503Z,18.57
2019-05-01T12:36:18.148Z,16.65
2019-05-01T12:37:36.618Z,16.25
2019-05-01T12:38:41.340Z,16.10
2019-05-01T12:39:46.196Z,16.70
2019-05-01T12:41:09.158Z,16.10
2019-05-01T12:42:14.386Z,16.30
2019-05-01T12:43:19.293Z,16.97
2019-05-01T12:44:24.172Z,16.67
2019-05-01T12:45:29.073Z,17.50
2019-05-01T12:47:00.545Z,16.62
2019-05-01T12:48:06.750Z,18.15
2019-05-01T12:49:11.938Z,18.10
2019-05-01T12:50:17.920Z,16.97
2019-05-01T12:51:22.718Z,16.73
2019-05-01T12:52:45.465Z,17.30
2019-05-01T12:54:08.623Z,16.07
2019-05-01T12:55:22.431Z,17.77
2019-05-01T12:56:46.014Z,18.80
2019-05-01T12:57:50.844Z,17.23
2019-05-01T12:58:55.987Z,17.82
2019-05-01T13:00:08.470Z,15.70
2019-05-01T13:01:07.808Z,16.55
2019-05-01T13:02:12.742Z,17.05
2019-05-01T13:03:17.592Z,16.15
2019-05-01T13:04:23.073Z,16.32
2019-05-01T13:05:28.006Z,17.52
2019-05-01T13:06:32.767Z,17.40
2019-05-01T13:07:37.572Z,16.50
2019-05-01T13:08:42.336Z,18.17
2019-05-01T13:09:47.054Z,16.93
2019-05-01T13:10:51.900Z,20.85
2019-05-01T13:11:56.615Z,18.32
2019-05-01T13:13:01.538Z,50.25
2019-05-01T13:14:06.328Z,17.85
2019-05-01T13:15:11.321Z,18.82
2019-05-01T13:16:16.084Z,19.85
2019-05-01T13:17:21.035Z,15.53
2019-05-01T13:18:25.806Z,16.00
2019-05-01T13:19:30.447Z,17.05
2019-05-01T13:20:35.350Z,14.90
2019-05-01T13:21:40.152Z,15.88
2019-05-01T13:22:45.540Z,14.60
2019-05-01T13:23:50.204Z,15.08
2019-05-01T13:24:55.193Z,15.93
2019-05-01T13:26:10.328Z,15.55
2019-05-01T13:27:19.359Z,13.65
2019-05-01T13:28:37.665Z,15.35
2019-05-01T13:29:47.371Z,13.58
2019-05-01T13:31:02.100Z,15.63
2019-05-01T13:32:16.869Z,16.23
2019-05-01T13:33:21.859Z,14.58
2019-05-01T13:34:26.815Z,14.50
2019-05-01T13:35:32.642Z,13.88
2019-05-01T13:36:37.876Z,13.43
2019-05-01T13:37:42.833Z,13.25
2019-05-01T13:38:47.756Z,13.40
2019-05-01T13:39:52.555Z,12.90
2019-05-01T13:40:57.726Z,13.45
2019-05-01T13:42:04.303Z,12.93
2019-05-01T13:43:09.120Z,13.13
2019-05-01T13:44:14.250Z,13.83
2019-05-01T13:45:19.255Z,14.35
2019-05-01T13:46:24.264Z,23.10
2019-05-01T13:47:29.077Z,57.98
2019-05-01T13:48:33.937Z,43.78
2019-05-01T13:49:38.872Z,16.73
2019-05-01T13:50:43.795Z,20.30
2019-05-01T13:51:48.833Z,20.30
2019-05-01T13:52:53.481Z,33.92
2019-05-01T13:53:58.344Z,20.50
2019-05-01T13:55:04.335Z,14.70
2019-05-01T13:56:09.118Z,16.23
2019-05-01T13:57:14.321Z,15.32
2019-05-01T13:58:19.111Z,13.38
2019-05-01T13:59:23.958Z,14.10
2019-05-01T14:00:29.458Z,13.25
2019-05-01T14:01:34.182Z,16.62
2019-05-01T14:02:38.928Z,12.63
2019-05-01T14:03:43.823Z,12.55
2019-05-01T14:04:48.572Z,12.53
2019-05-01T14:05:53.261Z,12.25
2019-05-01T14:06:59.097Z,12.33
2019-05-01T14:08:03.984Z,13.78
2019-05-01T14:09:11.769Z,13.25
2019-05-01T14:10:17.162Z,13.00
2019-05-01T14:11:21.972Z,12.70
2019-05-01T14:12:26.731Z,12.30
2019-05-01T14:13:31.786Z,12.10
2019-05-01T14:14:36.707Z,12.05
2019-05-01T14:15:41.727Z,12.78
2019-05-01T14:16:46.576Z,12.47
2019-05-01T14:17:51.509Z,11.93
2019-05-01T14:18:56.258Z,12.45
2019-05-01T14:20:11.464Z,12.68
2019-05-01T14:21:24.050Z,11.78
2019-05-01T14:22:48.103Z,11.97
2019-05-01T14:24:02.437Z,10.82
2019-05-01T14:25:08.820Z,11.40
2019-05-01T14:26:13.540Z,11.05
2019-05-01T14:27:18.222Z,10.28
2019-05-01T14:28:23.053Z,10.80
2019-05-01T14:29:27.770Z,10.28
2019-05-01T14:30:32.399Z,10.05
2019-05-01T14:31:37.127Z,14.00
2019-05-01T14:32:41.791Z,10.78
2019-05-01T14:33:46.699Z,10.80
2019-05-01T14:34:51.506Z,10.68
2019-05-01T14:35:56.348Z,9.80
2019-05-01T14:37:01.103Z,10.20
2019-05-01T14:38:06.142Z,9.98